Time;durP1;ratioP1;P1;durP2;ratioP2;P2;SDS_P1;SDS_P2;PMS_P1;PMS_P2;Temp;Humidity;BMP_temperature;BMP_pressure;BME280_temperature;BME280_humidity;BME280_pressure;Samples;Min_cycle;Max_cycle;Signal;HPM_P1;HPM_P2
2022/01/31 00:00:10;;;;;;;14.80;5.57;;;3.30;99.90;;;;;;5097651;28;20032;-77
2022/01/31 00:02:36;;;;;;;14.95;5.53;;;3.30;99.90;;;;;;5098604;28;20027;-77
2022/01/31 00:05:03;;;;;;;10.63;4.90;;;3.40;99.90;;;;;;5095941;28;20052;-76
2022/01/31 00:07:29;;;;;;;17.20;5.30;;;3.40;99.90;;;;;;5100782;28;20077;-76
2022/01/31 00:09:54;;;;;;;18.77;6.60;;;3.40;99.90;;;;;;5105452;28;20057;-76
2022/01/31 00:12:23;;;;;;;13.07;6.10;;;3.40;99.90;;;;;;5108777;28;20030;-78
2022/01/31 00:14:50;;;;;;;17.30;5.80;;;3.40;99.90;;;;;;5100097;28;20082;-80
2022/01/31 00:17:17;;;;;;;16.60;5.87;;;3.30;99.90;;;;;;5095483;28;20050;-76
2022/01/31 00:19:44;;;;;;;14.87;5.07;;;3.40;99.90;;;;;;5083504;28;20036;-79
2022/01/31 00:22:12;;;;;;;16.13;5.40;;;3.40;99.90;;;;;;5093009;28;20499;-76
2022/01/31 00:24:39;;;;;;;15.07;6.03;;;3.40;99.90;;;;;;5093082;28;20020;-77
2022/01/31 00:27:06;;;;;;;17.77;5.33;;;3.50;99.90;;;;;;5093424;28;20056;-76
2022/01/31 00:29:32;;;;;;;12.90;5.13;;;3.50;99.90;;;;;;5097139;28;20091;-77
2022/01/31 00:31:58;;;;;;;13.77;5.40;;;3.50;99.90;;;;;;5110971;28;20025;-77
2022/01/31 00:34:26;;;;;;;14.23;5.20;;;3.50;99.90;;;;;;5112252;28;20028;-78
2022/01/31 00:36:51;;;;;;;15.97;5.40;;;3.50;99.90;;;;;;5096106;28;20054;-77
2022/01/31 00:39:17;;;;;;;15.87;5.27;;;3.50;99.90;;;;;;5095473;28;20117;-77
2022/01/31 00:41:43;;;;;;;16.57;4.90;;;3.50;99.90;;;;;;5094344;28;20027;-80
2022/01/31 00:44:17;;;;;;;16.00;5.30;;;3.50;99.90;;;;;;5095510;28;20028;-78
2022/01/31 00:46:49;;;;;;;14.17;5.30;;;3.50;99.90;;;;;;5092796;28;20539;-79
2022/01/31 00:49:27;;;;;;;15.07;4.40;;;3.60;99.90;;;;;;5094037;28;20033;-76
2022/01/31 00:51:52;;;;;;;10.63;5.40;;;3.60;99.90;;;;;;5079311;28;20154;-77
2022/01/31 00:54:18;;;;;;;16.33;5.03;;;3.60;99.90;;;;;;5095069;28;20095;-77
2022/01/31 00:56:43;;;;;;;14.00;4.90;;;3.60;99.90;;;;;;5093728;28;20024;-79
2022/01/31 00:59:09;;;;;;;17.13;5.30;;;3.60;99.90;;;;;;5093682;28;20462;-78
2022/01/31 01:01:35;;;;;;;18.37;5.33;;;3.60;99.90;;;;;;5093693;28;20063;-77
2022/01/31 01:04:00;;;;;;;14.23;5.03;;;3.60;99.90;;;;;;5093588;28;20069;-77
2022/01/31 01:06:26;;;;;;;15.20;4.73;;;3.60;99.90;;;;;;5094006;28;20465;-77
2022/01/31 01:08:51;;;;;;;13.93;5.20;;;3.60;99.90;;;;;;5093462;28;20028;-77
2022/01/31 01:11:17;;;;;;;19.90;5.73;;;3.60;99.90;;;;;;5093727;28;20118;-78
2022/01/31 01:13:42;;;;;;;15.17;5.63;;;3.60;99.90;;;;;;5093696;28;20103;-80
2022/01/31 01:16:08;;;;;;;15.73;5.80;;;3.60;99.90;;;;;;5093384;28;20032;-77
2022/01/31 01:18:34;;;;;;;20.20;5.67;;;3.50;99.90;;;;;;5093618;28;20061;-77
2022/01/31 01:21:00;;;;;;;17.33;5.93;;;3.50;99.90;;;;;;5093986;28;20430;-77
2022/01/31 01:23:25;;;;;;;12.53;5.00;;;3.40;99.90;;;;;;5093134;28;20031;-78
2022/01/31 01:25:51;;;;;;;15.40;5.20;;;3.40;99.90;;;;;;5102900;28;20047;-77
2022/01/31 01:28:19;;;;;;;11.37;5.00;;;3.40;99.90;;;;;;5098269;28;20087;-78
2022/01/31 01:30:45;;;;;;;16.37;5.40;;;3.40;99.90;;;;;;5098410;28;20031;-77
2022/01/31 01:33:18;;;;;;;15.40;6.07;;;3.40;99.90;;;;;;5096821;28;20020;-78
2022/01/31 01:35:46;;;;;;;19.40;5.60;;;3.40;99.90;;;;;;5096204;28;20054;-79
2022/01/31 01:38:15;;;;;;;17.40;5.97;;;3.30;99.90;;;;;;5096845;28;20024;-79
2022/01/31 01:40:41;;;;;;;17.20;6.67;;;3.30;99.90;;;;;;5097316;28;20375;-78
2022/01/31 01:43:08;;;;;;;19.33;6.77;;;3.30;99.90;;;;;;5096661;28;20032;-78
2022/01/31 01:45:34;;;;;;;20.63;6.20;;;3.30;99.90;;;;;;5096984;28;20028;-78
2022/01/31 01:48:00;;;;;;;23.40;6.03;;;3.20;99.90;;;;;;5096587;28;20086;-78
2022/01/31 01:50:26;;;;;;;14.87;5.90;;;3.20;99.90;;;;;;5097005;28;20468;-78
2022/01/31 01:52:52;;;;;;;16.53;7.00;;;3.20;99.90;;;;;;5096432;28;20050;-78
2022/01/31 01:55:19;;;;;;;18.60;6.67;;;3.10;99.90;;;;;;5114952;28;20465;-78
2022/01/31 01:57:45;;;;;;;18.53;6.90;;;3.10;99.90;;;;;;5114476;28;20035;-81
2022/01/31 02:00:16;;;;;;;23.47;6.90;;;3.10;99.90;;;;;;5096549;28;20397;-78
2022/01/31 02:02:45;;;;;;;18.52;6.25;;;3.10;99.90;;;;;;5096625;28;20068;-77
2022/01/31 02:05:12;;;;;;;17.03;6.50;;;3.00;99.90;;;;;;5114395;28;20027;-78
2022/01/31 02:07:39;;;;;;;18.13;6.17;;;3.00;99.90;;;;;;5096860;28;20088;-77
2022/01/31 02:10:06;;;;;;;15.73;5.77;;;3.10;99.90;;;;;;5095771;28;20583;-78
2022/01/31 02:12:47;;;;;;;16.67;5.97;;;3.10;99.90;;;;;;5096339;28;20036;-77
2022/01/31 02:15:14;;;;;;;12.67;5.70;;;3.10;99.90;;;;;;5096198;28;20073;-77
2022/01/31 02:17:40;;;;;;;18.77;6.33;;;3.10;99.90;;;;;;5096352;28;20028;-77
2022/01/31 02:20:08;;;;;;;22.17;6.23;;;3.10;99.90;;;;;;5095906;28;20028;-78
2022/01/31 02:22:35;;;;;;;16.40;5.70;;;3.10;99.90;;;;;;5096493;28;20027;-78
2022/01/31 02:25:01;;;;;;;22.37;6.10;;;3.10;99.90;;;;;;5095700;28;20027;-79
2022/01/31 02:27:34;;;;;;;14.33;5.73;;;3.10;99.90;;;;;;5096276;28;20027;-78
2022/01/31 02:30:00;;;;;;;17.57;5.33;;;3.10;99.90;;;;;;5095779;28;20027;-78
2022/01/31 02:32:26;;;;;;;10.73;4.93;;;3.20;99.90;;;;;;5095957;28;20072;-78
2022/01/31 02:34:52;;;;;;;17.70;5.43;;;3.20;99.90;;;;;;5113708;28;20039;-79
2022/01/31 02:37:20;;;;;;;15.57;5.47;;;3.20;99.90;;;;;;5096179;28;20027;-78
2022/01/31 02:39:46;;;;;;;12.43;4.80;;;3.20;99.90;;;;;;5114047;28;20110;-81
2022/01/31 02:42:12;;;;;;;13.00;5.00;;;3.20;99.90;;;;;;5095525;28;20078;-78
2022/01/31 02:44:40;;;;;;;15.00;4.80;;;3.20;99.90;;;;;;5096103;28;20028;-78
2022/01/31 02:47:11;;;;;;;10.77;4.50;;;3.20;99.90;;;;;;5113941;28;20035;-78
2022/01/31 02:49:46;;;;;;;11.40;4.50;;;3.20;99.90;;;;;;5114279;28;20028;-78
2022/01/31 02:52:14;;;;;;;12.47;4.73;;;3.30;99.90;;;;;;5095377;28;20137;-78
2022/01/31 02:54:39;;;;;;;11.20;4.07;;;3.30;99.90;;;;;;5113642;28;20058;-78
2022/01/31 02:57:05;;;;;;;10.80;4.53;;;3.40;99.90;;;;;;5113205;28;20055;-78
2022/01/31 02:59:31;;;;;;;13.03;3.50;;;3.40;99.90;;;;;;5095728;28;20028;-77
2022/01/31 03:01:58;;;;;;;14.63;3.83;;;3.40;99.90;;;;;;5095148;28;20020;-79
2022/01/31 03:04:24;;;;;;;11.90;3.60;;;3.40;99.90;;;;;;5095677;28;20023;-78
2022/01/31 03:06:49;;;;;;;6.83;3.23;;;3.40;99.90;;;;;;5095431;28;20413;-81
2022/01/31 03:09:15;;;;;;;8.30;2.80;;;3.50;99.90;;;;;;5096069;28;20428;-78
2022/01/31 03:11:42;;;;;;;9.63;3.80;;;3.60;99.90;;;;;;5100100;28;20023;-78
2022/01/31 03:14:08;;;;;;;8.20;3.07;;;3.60;99.90;;;;;;5099226;28;20031;-78
2022/01/31 03:16:35;;;;;;;10.70;3.00;;;3.60;99.90;;;;;;5099867;28;20476;-78
2022/01/31 03:19:00;;;;;;;11.50;3.77;;;3.70;99.90;;;;;;5116818;28;20038;-78
2022/01/31 03:21:26;;;;;;;7.63;2.23;;;3.70;99.90;;;;;;5099870;28;20028;-78
2022/01/31 03:23:52;;;;;;;12.23;3.20;;;3.70;99.90;;;;;;5099498;28;20089;-81
2022/01/31 03:26:18;;;;;;;13.17;2.90;;;3.80;99.90;;;;;;5099415;28;20067;-78
2022/01/31 03:28:44;;;;;;;6.87;2.90;;;3.80;99.90;;;;;;5099586;28;20076;-78
2022/01/31 03:31:09;;;;;;;9.07;2.80;;;3.90;99.90;;;;;;5116819;28;20027;-78
2022/01/31 03:33:36;;;;;;;11.33;3.17;;;3.90;99.90;;;;;;5099490;28;20024;-79
2022/01/31 03:36:02;;;;;;;8.87;2.60;;;3.90;99.90;;;;;;5098715;28;20087;-79
2022/01/31 03:38:27;;;;;;;8.77;2.80;;;4.00;99.90;;;;;;5099274;28;20545;-78
2022/01/31 03:40:53;;;;;;;12.87;2.10;;;4.00;99.90;;;;;;5099073;28;20093;-80
2022/01/31 03:43:19;;;;;;;9.70;2.70;;;4.10;99.90;;;;;;5099275;28;20031;-78
2022/01/31 03:45:44;;;;;;;9.27;2.30;;;4.10;99.90;;;;;;5117406;28;20111;-78
2022/01/31 03:48:10;;;;;;;10.23;2.87;;;4.20;99.90;;;;;;5098746;28;20666;-78
2022/01/31 03:50:36;;;;;;;12.07;3.07;;;4.20;99.90;;;;;;5117135;28;20023;-78
2022/01/31 03:53:01;;;;;;;4.87;2.13;;;4.20;99.90;;;;;;5098787;28;20062;-78
2022/01/31 03:55:27;;;;;;;7.17;2.33;;;4.30;99.90;;;;;;5099083;28;20026;-78
2022/01/31 03:57:54;;;;;;;8.73;3.00;;;4.30;99.90;;;;;;5116909;28;20027;-80
2022/01/31 04:00:22;;;;;;;6.50;2.20;;;4.30;99.90;;;;;;5098854;28;20035;-78
2022/01/31 04:02:48;;;;;;;9.20;2.53;;;4.30;99.90;;;;;;5098593;28;20373;-78
2022/01/31 04:05:13;;;;;;;7.97;2.37;;;4.30;99.90;;;;;;5098044;28;20041;-78
2022/01/31 04:07:40;;;;;;;10.30;2.83;;;4.30;99.90;;;;;;5116492;28;20452;-78
2022/01/31 04:10:06;;;;;;;8.93;3.00;;;4.30;99.90;;;;;;5097723;28;20031;-78
2022/01/31 04:12:32;;;;;;;10.87;2.60;;;4.40;99.90;;;;;;5098470;28;20224;-77
2022/01/31 04:14:57;;;;;;;8.37;2.13;;;4.40;99.90;;;;;;5098259;28;20047;-78
2022/01/31 04:17:25;;;;;;;7.50;2.70;;;4.40;99.90;;;;;;5116024;28;20034;-78
2022/01/31 04:19:51;;;;;;;10.07;3.07;;;4.40;99.90;;;;;;5098384;28;20039;-78
2022/01/31 04:22:23;;;;;;;5.97;2.83;;;4.40;99.90;;;;;;5097897;28;20034;-78
2022/01/31 04:24:54;;;;;;;9.40;2.35;;;4.40;99.90;;;;;;5098683;28;20451;-78
2022/01/31 04:27:20;;;;;;;10.87;2.90;;;4.50;99.90;;;;;;5095012;28;20044;-78
2022/01/31 04:29:47;;;;;;;10.73;2.87;;;4.50;99.90;;;;;;5094995;28;20028;-78
2022/01/31 04:32:14;;;;;;;6.50;2.73;;;4.50;99.90;;;;;;5095928;28;20075;-78
2022/01/31 04:34:40;;;;;;;10.30;2.60;;;4.40;99.90;;;;;;5095071;28;20024;-78
2022/01/31 04:37:07;;;;;;;6.53;2.47;;;4.50;99.90;;;;;;5094420;28;20082;-78
2022/01/31 04:39:33;;;;;;;11.10;3.17;;;4.40;99.90;;;;;;5077692;28;20518;-78
2022/01/31 04:41:59;;;;;;;7.77;2.57;;;4.40;99.90;;;;;;5094353;28;20032;-78
2022/01/31 04:44:24;;;;;;;12.93;2.90;;;4.40;99.90;;;;;;5094713;28;20031;-78
2022/01/31 04:46:51;;;;;;;11.57;3.37;;;4.40;99.90;;;;;;5095698;28;20110;-78
2022/01/31 04:49:21;;;;;;;7.47;2.67;;;4.50;99.90;;;;;;5094717;28;20066;-77
2022/01/31 04:51:47;;;;;;;11.60;3.13;;;4.50;99.90;;;;;;5077537;28;20024;-77
2022/01/31 04:54:13;;;;;;;10.17;2.90;;;4.50;99.90;;;;;;5077065;28;20035;-77
2022/01/31 04:56:41;;;;;;;7.93;3.10;;;4.50;99.90;;;;;;5077513;28;20024;-77
2022/01/31 04:59:10;;;;;;;6.17;2.33;;;4.50;99.90;;;;;;5094814;28;20040;-78
2022/01/31 05:01:39;;;;;;;4.80;2.50;;;4.60;99.90;;;;;;5095406;28;20053;-78
2022/01/31 05:04:05;;;;;;;7.57;2.80;;;4.60;99.90;;;;;;5094827;28;20034;-78
2022/01/31 05:06:35;;;;;;;7.90;2.77;;;4.60;99.90;;;;;;5094887;28;20024;-78
2022/01/31 05:09:03;;;;;;;9.67;2.40;;;4.60;99.90;;;;;;5093335;28;20024;-78
2022/01/31 05:11:29;;;;;;;11.07;2.87;;;4.70;99.90;;;;;;5076953;28;20115;-77
2022/01/31 05:13:55;;;;;;;7.03;2.63;;;4.70;99.90;;;;;;5094581;28;20071;-79
2022/01/31 05:16:22;;;;;;;7.53;2.37;;;4.70;99.90;;;;;;5094768;28;20368;-78
2022/01/31 05:18:47;;;;;;;10.87;2.83;;;4.70;99.90;;;;;;5093650;28;20078;-78
2022/01/31 05:21:13;;;;;;;8.70;3.17;;;4.70;99.90;;;;;;5093037;28;20024;-79
2022/01/31 05:23:39;;;;;;;9.30;2.70;;;4.70;99.90;;;;;;5093853;28;20050;-79
2022/01/31 05:26:04;;;;;;;7.30;2.73;;;4.80;99.90;;;;;;5086134;28;20484;-78
2022/01/31 05:28:30;;;;;;;10.23;2.27;;;4.80;99.90;;;;;;5097076;28;20034;-78
2022/01/31 05:30:56;;;;;;;4.87;2.40;;;4.80;99.90;;;;;;5096724;28;20110;-81
2022/01/31 05:33:22;;;;;;;10.30;2.87;;;4.80;99.90;;;;;;5095962;28;20031;-78
2022/01/31 05:35:47;;;;;;;7.30;2.40;;;4.90;99.90;;;;;;5097017;28;20533;-78
2022/01/31 05:38:13;;;;;;;11.33;3.17;;;4.90;99.90;;;;;;5096849;28;20028;-79
2022/01/31 05:40:39;;;;;;;10.30;2.03;;;4.90;99.90;;;;;;5097338;28;20508;-79
2022/01/31 05:43:04;;;;;;;10.93;2.40;;;4.90;99.90;;;;;;5096883;28;20020;-79
2022/01/31 05:45:30;;;;;;;9.17;2.57;;;4.90;99.90;;;;;;5097454;28;20100;-79
2022/01/31 05:47:56;;;;;;;7.03;2.37;;;4.90;99.90;;;;;;5097441;28;20031;-78
2022/01/31 05:50:22;;;;;;;7.33;2.43;;;4.90;99.90;;;;;;5096579;28;20039;-79
2022/01/31 05:52:47;;;;;;;7.47;2.43;;;4.90;99.90;;;;;;5096963;28;20084;-78
2022/01/31 05:55:14;;;;;;;8.17;2.67;;;4.90;99.90;;;;;;5096391;28;20024;-78
2022/01/31 05:57:41;;;;;;;6.73;2.43;;;4.90;99.90;;;;;;5096812;28;20036;-78
2022/01/31 06:00:08;;;;;;;7.07;2.50;;;4.90;99.90;;;;;;5114260;28;20020;-79
2022/01/31 06:02:35;;;;;;;11.53;2.50;;;4.80;99.90;;;;;;5096526;28;20019;-78
2022/01/31 06:05:04;;;;;;;10.20;2.50;;;4.80;99.90;;;;;;5096138;28;20392;-80
2022/01/31 06:07:30;;;;;;;14.83;2.97;;;4.80;99.90;;;;;;5096105;28;20028;-78
2022/01/31 06:09:56;;;;;;;7.00;2.70;;;4.70;99.90;;;;;;5096209;28;20072;-78
2022/01/31 06:12:22;;;;;;;9.93;2.60;;;4.70;99.90;;;;;;5113588;28;20155;-79
2022/01/31 06:14:48;;;;;;;8.00;2.40;;;4.70;99.90;;;;;;5096130;28;20031;-78
2022/01/31 06:17:13;;;;;;;10.17;2.57;;;4.70;99.90;;;;;;5113473;28;20614;-79
2022/01/31 06:19:39;;;;;;;12.00;2.80;;;4.70;99.90;;;;;;5095515;28;20057;-78
2022/01/31 06:22:05;;;;;;;10.03;3.03;;;4.70;99.90;;;;;;5094967;28;20024;-79
2022/01/31 06:24:30;;;;;;;8.60;2.77;;;4.60;99.90;;;;;;5095611;28;20456;-78
2022/01/31 06:26:58;;;;;;;7.40;2.40;;;4.60;99.90;;;;;;5113862;28;20123;-78
2022/01/31 06:29:24;;;;;;;7.53;2.50;;;4.60;99.90;;;;;;5094983;28;20027;-78
2022/01/31 06:31:49;;;;;;;7.30;2.70;;;4.60;99.90;;;;;;5095411;28;20080;-79
2022/01/31 06:34:18;;;;;;;9.17;2.80;;;4.60;99.90;;;;;;5094140;28;20023;-78
2022/01/31 06:36:43;;;;;;;11.63;2.70;;;4.50;99.90;;;;;;5095410;28;20457;-78
2022/01/31 06:39:09;;;;;;;8.40;2.73;;;4.50;99.90;;;;;;5094004;28;20050;-79
2022/01/31 06:41:35;;;;;;;12.23;3.13;;;4.50;99.90;;;;;;5095255;28;20485;-78
2022/01/31 06:44:01;;;;;;;9.37;2.73;;;4.50;99.90;;;;;;5094647;28;20032;-80
2022/01/31 06:46:26;;;;;;;8.93;2.97;;;4.50;99.90;;;;;;5095228;28;20110;-79
2022/01/31 06:48:52;;;;;;;12.57;2.70;;;4.40;99.90;;;;;;5113780;28;20032;-77
2022/01/31 06:51:18;;;;;;;11.40;2.87;;;4.40;99.90;;;;;;5113152;28;20444;-78
2022/01/31 06:53:48;;;;;;;5.37;2.70;;;4.40;99.90;;;;;;5095210;28;20024;-78
2022/01/31 06:56:14;;;;;;;8.20;2.80;;;4.40;99.90;;;;;;5094287;28;20027;-78
2022/01/31 06:58:39;;;;;;;8.67;3.03;;;4.40;99.90;;;;;;5095322;28;20036;-78
2022/01/31 07:01:05;;;;;;;9.73;3.20;;;4.40;99.90;;;;;;5094379;28;20426;-79
2022/01/31 07:03:31;;;;;;;8.13;2.60;;;4.40;99.90;;;;;;5095130;28;20020;-78
2022/01/31 07:05:56;;;;;;;8.43;2.50;;;4.40;99.90;;;;;;5095358;28;20082;-80
2022/01/31 07:08:22;;;;;;;14.27;3.20;;;4.40;99.90;;;;;;5112941;28;20062;-78
2022/01/31 07:10:52;;;;;;;12.03;2.50;;;4.30;99.90;;;;;;5095253;28;20019;-78
2022/01/31 07:13:35;;;;;;;7.80;2.90;;;4.40;99.90;;;;;;5094819;28;20354;-78
2022/01/31 07:16:02;;;;;;;5.30;2.63;;;4.40;99.90;;;;;;5113288;28;20098;-78
2022/01/31 07:18:28;;;;;;;13.83;3.10;;;4.40;99.90;;;;;;5094484;28;20046;-78
2022/01/31 07:20:55;;;;;;;8.70;2.87;;;4.40;99.90;;;;;;5094956;28;20380;-79
2022/01/31 07:23:28;;;;;;;8.93;2.90;;;4.40;99.90;;;;;;5113022;28;20031;-78
2022/01/31 07:25:55;;;;;;;6.63;2.60;;;4.40;99.90;;;;;;5094897;28;20393;-79
2022/01/31 07:28:21;;;;;;;6.37;2.23;;;4.40;99.90;;;;;;5094832;28;20053;-79
2022/01/31 07:30:50;;;;;;;5.83;2.20;;;4.50;99.90;;;;;;5095356;28;20071;-78
2022/01/31 07:33:17;;;;;;;9.77;2.70;;;4.50;99.90;;;;;;5094850;28;20061;-79
2022/01/31 07:35:44;;;;;;;7.33;2.37;;;4.50;99.90;;;;;;5095038;28;20024;-78
2022/01/31 07:38:13;;;;;;;8.93;2.23;;;4.50;99.90;;;;;;5094436;28;20465;-79
2022/01/31 07:40:39;;;;;;;5.97;2.03;;;4.50;99.90;;;;;;5094878;28;20031;-79
2022/01/31 07:43:05;;;;;;;6.03;2.23;;;4.50;99.90;;;;;;5094784;28;20065;-81
2022/01/31 07:45:30;;;;;;;10.60;2.40;;;4.50;99.90;;;;;;5094573;28;20399;-79
2022/01/31 07:47:56;;;;;;;6.13;1.60;;;4.50;99.90;;;;;;5095379;28;20028;-78
2022/01/31 07:50:22;;;;;;;5.10;2.00;;;4.50;99.90;;;;;;5112843;28;20027;-79
2022/01/31 07:52:48;;;;;;;5.30;1.73;;;4.50;99.90;;;;;;5095624;28;20030;-79
2022/01/31 07:55:13;;;;;;;6.53;1.60;;;4.50;99.90;;;;;;5095232;28;20027;-79
2022/01/31 07:57:41;;;;;;;2.83;1.70;;;4.50;99.90;;;;;;5099357;28;20536;-79
2022/01/31 08:00:08;;;;;;;4.73;1.70;;;4.50;99.90;;;;;;5116967;28;20023;-81
2022/01/31 08:02:34;;;;;;;3.73;1.13;;;4.60;99.90;;;;;;5117491;28;20026;-79
2022/01/31 08:04:59;;;;;;;5.73;1.30;;;4.60;99.90;;;;;;5099300;28;20020;-79
2022/01/31 08:07:25;;;;;;;3.83;1.30;;;4.50;99.90;;;;;;5116558;28;20031;-79
2022/01/31 08:09:51;;;;;;;6.40;1.40;;;4.60;99.90;;;;;;5116876;28;20445;-79
2022/01/31 08:12:17;;;;;;;2.77;1.23;;;4.70;99.90;;;;;;5098072;28;20020;-80
2022/01/31 08:14:44;;;;;;;2.53;1.10;;;4.70;99.90;;;;;;5117032;28;20028;-78
2022/01/31 08:17:10;;;;;;;3.30;1.40;;;4.70;99.90;;;;;;5097855;28;20491;-80
2022/01/31 08:19:36;;;;;;;3.03;1.07;;;4.70;99.90;;;;;;5117032;28;20114;-79
2022/01/31 08:22:01;;;;;;;3.10;1.30;;;4.70;99.90;;;;;;5117313;28;20358;-79
2022/01/31 08:24:27;;;;;;;2.63;1.40;;;4.80;99.90;;;;;;5098435;28;20015;-79
2022/01/31 08:26:53;;;;;;;4.13;1.20;;;4.80;99.90;;;;;;5098424;28;20079;-78
2022/01/31 08:29:23;;;;;;;1.80;1.00;;;4.80;99.90;;;;;;5098181;28;20127;-79
2022/01/31 08:31:52;;;;;;;3.07;1.40;;;4.80;99.90;;;;;;5098853;28;20020;-78
2022/01/31 08:35:47;;;;;;;2.63;1.30;;;4.90;99.90;;;;;;5097863;28;20111;-78
2022/01/31 08:37:05;;;;;;;3.23;1.33;;;4.90;99.90;;;;;;5115629;28;20028;-78
2022/01/31 08:39:30;;;;;;;2.63;1.40;;;4.90;99.90;;;;;;5098140;28;20034;-78
2022/01/31 08:41:56;;;;;;;4.60;1.20;;;4.90;99.90;;;;;;5116717;28;20028;-80
2022/01/31 08:44:23;;;;;;;2.93;1.30;;;5.00;99.90;;;;;;5116264;28;20024;-79
2022/01/31 08:46:50;;;;;;;3.50;1.30;;;5.10;99.90;;;;;;5116196;28;20487;-79
2022/01/31 08:49:17;;;;;;;1.93;1.10;;;5.10;99.90;;;;;;5097792;28;20028;-79
2022/01/31 08:51:45;;;;;;;2.27;1.03;;;5.10;99.90;;;;;;5115966;28;20032;-78
2022/01/31 08:54:12;;;;;;;4.43;1.20;;;5.20;99.90;;;;;;5096902;28;20023;-81
2022/01/31 08:56:44;;;;;;;2.90;0.90;;;5.30;99.90;;;;;;5096792;28;20028;-79
2022/01/31 08:59:14;;;;;;;5.87;1.20;;;5.20;99.90;;;;;;5096688;28;20051;-82
2022/01/31 09:01:40;;;;;;;4.37;1.40;;;5.30;99.90;;;;;;5094801;28;20023;-78
2022/01/31 09:04:09;;;;;;;1.53;1.00;;;5.20;99.90;;;;;;5115650;28;20072;-78
2022/01/31 09:06:36;;;;;;;4.80;1.37;;;5.20;99.90;;;;;;5096843;28;20517;-78
2022/01/31 09:09:06;;;;;;;3.63;1.30;;;5.20;99.90;;;;;;5096852;28;20119;-78
2022/01/31 09:11:31;;;;;;;2.73;1.40;;;5.20;99.90;;;;;;5096922;28;20083;-79
2022/01/31 09:13:59;;;;;;;2.87;1.10;;;5.20;99.90;;;;;;5096795;28;20019;-79
2022/01/31 09:16:25;;;;;;;4.60;1.30;;;5.20;99.90;;;;;;5096547;28;20036;-78
2022/01/31 09:18:50;;;;;;;2.03;1.03;;;5.20;99.90;;;;;;5115153;28;20032;-79
2022/01/31 09:21:16;;;;;;;2.87;1.10;;;5.30;99.90;;;;;;5096407;28;20065;-79
2022/01/31 09:23:42;;;;;;;3.43;1.30;;;5.30;99.90;;;;;;5096592;28;20023;-78
2022/01/31 09:26:09;;;;;;;4.47;1.37;;;5.30;99.90;;;;;;5114868;28;20105;-80
2022/01/31 09:28:36;;;;;;;3.40;1.17;;;5.40;99.90;;;;;;5096686;28;20377;-78
2022/01/31 09:31:02;;;;;;;3.40;1.10;;;5.40;99.90;;;;;;5115191;28;20522;-79
2022/01/31 09:33:29;;;;;;;4.70;1.53;;;5.40;99.90;;;;;;5114426;28;20077;-80
2022/01/31 09:35:55;;;;;;;4.30;1.40;;;5.50;99.90;;;;;;5096383;28;20030;-79
2022/01/31 09:38:24;;;;;;;5.53;1.40;;;5.50;99.90;;;;;;5099075;27;20456;-77
2022/01/31 09:40:50;;;;;;;3.67;1.50;;;5.50;99.90;;;;;;5105196;28;20373;-77
2022/01/31 09:48:37;;;;;;;2.23;1.13;;;5.70;99.90;;;;;;5120017;27;20028;-79
2022/01/31 09:51:09;;;;;;;4.87;1.10;;;5.80;99.90;;;;;;5107843;27;20027;-79
2022/01/31 09:53:39;;;;;;;4.00;1.55;;;5.90;99.90;;;;;;5128170;27;20215;-79
2022/01/31 09:56:10;;;;;;;3.37;1.27;;;5.90;99.90;;;;;;5108175;27;20512;-78
2022/01/31 09:58:37;;;;;;;2.97;1.13;;;6.00;99.90;;;;;;5108068;27;20060;-79
2022/01/31 10:01:11;;;;;;;4.20;1.40;;;6.00;99.90;;;;;;5104645;28;20029;-79
2022/01/31 10:03:50;;;;;;;1.73;1.30;;;6.00;99.90;;;;;;5107045;27;20042;-79
2022/01/31 10:06:23;;;;;;;7.73;1.83;;;6.10;99.90;;;;;;5106257;27;20051;-80
2022/01/31 10:09:17;;;;;;;3.40;1.33;;;6.10;99.90;;;;;;5117959;27;20031;-79
2022/01/31 10:11:53;;;;;;;2.60;1.27;;;6.10;99.90;;;;;;5115175;27;20026;-79
2022/01/31 10:17:22;;;;;;;1.87;1.13;;;6.10;99.90;;;;;;5122494;27;20046;-80
2022/01/31 10:19:48;;;;;;;3.77;1.33;;;6.20;99.90;;;;;;5106556;27;20042;-80
2022/01/31 10:22:16;;;;;;;3.80;1.23;;;6.20;99.90;;;;;;5106197;27;20484;-85
2022/01/31 10:24:45;;;;;;;3.80;1.33;;;6.30;99.90;;;;;;5103287;27;20096;-79
2022/01/31 10:27:11;;;;;;;4.70;1.40;;;6.40;99.90;;;;;;5125646;27;20433;-83
2022/01/31 10:29:37;;;;;;;4.13;1.23;;;6.40;99.90;;;;;;5105905;27;20114;-80
2022/01/31 10:32:06;;;;;;;2.30;0.80;;;6.50;99.90;;;;;;5109260;27;20019;-80
2022/01/31 10:34:47;;;;;;;3.57;1.17;;;6.50;99.90;;;;;;5106686;28;20023;-78
2022/01/31 10:37:16;;;;;;;1.97;0.90;;;6.50;99.90;;;;;;5090571;28;20019;-80
2022/01/31 10:51:01;;;;;;;3.87;1.20;;;6.70;99.90;;;;;;5120604;27;20034;-78
2022/01/31 10:53:36;;;;;;;2.40;0.80;;;6.80;99.90;;;;;;5074427;28;20024;-78
2022/01/31 10:56:01;;;;;;;3.00;0.80;;;6.80;99.90;;;;;;5075375;28;20110;-79
2022/01/31 10:58:29;;;;;;;1.80;1.10;;;6.80;99.90;;;;;;5093612;28;20154;-80
2022/01/31 11:01:10;;;;;;;4.17;1.03;;;6.80;99.90;;;;;;5115200;28;20027;-80
2022/01/31 11:03:35;;;;;;;5.87;1.07;;;6.80;99.90;;;;;;5113708;28;20092;-80
2022/01/31 11:06:09;;;;;;;2.13;1.10;;;6.80;99.90;;;;;;5095585;28;20480;-79
2022/01/31 11:08:35;;;;;;;4.83;1.00;;;6.90;99.90;;;;;;5094237;28;20031;-80
2022/01/31 11:11:01;;;;;;;2.23;1.17;;;6.90;99.90;;;;;;5094776;28;20069;-80
2022/01/31 11:13:30;;;;;;;4.27;1.50;;;6.90;99.90;;;;;;5095105;28;20032;-76
2022/01/31 11:15:57;;;;;;;1.97;0.80;;;6.90;99.90;;;;;;5094963;28;20031;-80
2022/01/31 11:18:24;;;;;;;3.23;1.00;;;7.00;99.90;;;;;;5095220;28;20036;-79
2022/01/31 11:20:56;;;;;;;2.90;0.80;;;6.90;99.90;;;;;;5113693;28;20462;-79
2022/01/31 11:23:27;;;;;;;4.53;0.70;;;7.00;99.40;;;;;;5095343;28;20051;-79
2022/01/31 11:25:56;;;;;;;2.70;1.10;;;7.00;99.30;;;;;;5091583;28;20040;-79
2022/01/31 11:28:23;;;;;;;5.10;0.80;;;7.10;99.10;;;;;;5074622;28;20028;-76
2022/01/31 11:30:51;;;;;;;3.80;0.80;;;7.20;98.90;;;;;;5093831;28;20024;-76
2022/01/31 11:33:18;;;;;;;2.63;0.90;;;7.20;99.00;;;;;;5096523;28;20047;-77
2022/01/31 11:35:44;;;;;;;2.77;0.60;;;7.30;98.40;;;;;;5078688;28;20111;-76
2022/01/31 11:38:10;;;;;;;3.40;0.70;;;7.20;98.30;;;;;;5108635;28;20039;-78
2022/01/31 11:40:37;;;;;;;2.87;0.50;;;7.20;98.00;;;;;;5097922;28;20034;-78
2022/01/31 11:43:03;;;;;;;4.87;0.80;;;7.20;97.80;;;;;;5098615;28;20019;-76
2022/01/31 11:45:33;;;;;;;2.83;0.70;;;7.20;97.80;;;;;;5100578;27;20110;-78
2022/01/31 11:48:24;;;;;;;2.83;0.70;;;7.10;98.30;;;;;;5105574;27;20057;-79
2022/01/31 11:50:55;;;;;;;2.27;0.70;;;7.20;98.20;;;;;;5107297;27;20024;-77
2022/01/31 11:53:27;;;;;;;3.15;0.70;;;7.20;98.20;;;;;;5106946;27;20119;-78
2022/01/31 11:55:52;;;;;;;;;;;7.20;97.70;;;;;;5104715;28;20032;-77
2022/01/31 11:58:18;;;;;;;4.50;0.73;;;7.30;97.90;;;;;;5108868;27;19956;-79
2022/01/31 12:00:47;;;;;;;2.80;0.77;;;7.30;97.90;;;;;;5108421;27;20376;-78
2022/01/31 12:03:17;;;;;;;3.53;0.97;;;7.30;97.90;;;;;;5107460;28;20020;-79
2022/01/31 12:05:44;;;;;;;2.53;0.83;;;7.30;97.20;;;;;;5106988;27;20073;-78
2022/01/31 12:08:17;;;;;;;2.20;0.80;;;7.20;97.50;;;;;;5120576;27;20024;-76
2022/01/31 12:10:52;;;;;;;4.63;0.83;;;7.30;97.80;;;;;;5098140;28;20538;-77
2022/01/31 12:13:49;;;;;;;5.87;1.00;;;7.30;97.40;;;;;;5097540;28;20433;-78
2022/01/31 12:16:30;;;;;;;1.77;0.70;;;7.20;97.30;;;;;;5097493;28;20063;-82
2022/01/31 12:24:38;;;;;;;5.37;0.87;;;7.20;98.40;;;;;;5115634;28;20019;-77
2022/01/31 12:27:03;;;;;;;;;;;7.20;98.50;;;;;;5084358;28;20066;-76
2022/01/31 12:29:30;;;;;;;2.10;0.60;;;7.20;98.20;;;;;;5077140;28;19904;-77
2022/01/31 12:31:57;;;;;;;4.67;0.90;;;7.20;98.30;;;;;;5083986;28;20047;-76
2022/01/31 12:34:23;;;;;;;2.50;0.70;;;7.20;98.00;;;;;;5096630;28;20038;-77
2022/01/31 12:36:50;;;;;;;3.90;0.83;;;7.20;98.10;;;;;;5115735;28;20024;-77
2022/01/31 12:39:41;;;;;;;1.57;0.70;;;7.20;98.50;;;;;;5115396;28;20032;-77
2022/01/31 12:42:47;;;;;;;5.17;0.77;;;7.30;98.20;;;;;;5074421;28;20042;-77
2022/01/31 12:45:22;;;;;;;2.97;0.97;;;7.30;97.90;;;;;;5114972;28;20020;-77
2022/01/31 12:48:09;;;;;;;3.27;0.83;;;7.40;97.90;;;;;;5113322;28;20035;-77
2022/01/31 12:50:37;;;;;;;3.17;0.80;;;7.40;97.10;;;;;;5095473;28;20020;-75
2022/01/31 12:53:06;;;;;;;3.80;0.90;;;7.50;97.50;;;;;;5115350;28;20037;-75
2022/01/31 12:55:35;;;;;;;2.13;0.77;;;7.40;97.30;;;;;;5095839;28;20028;-78
2022/01/31 12:58:02;;;;;;;1.43;0.70;;;7.50;96.40;;;;;;5101917;27;20031;-76
2022/01/31 13:00:39;;;;;;;6.30;0.80;;;7.40;96.60;;;;;;5096629;28;20066;-78
2022/01/31 13:03:08;;;;;;;3.67;0.70;;;7.40;96.70;;;;;;5094891;28;20054;-78
2022/01/31 13:05:38;;;;;;;4.20;0.63;;;7.50;97.10;;;;;;5096386;28;20118;-78
2022/01/31 13:08:24;;;;;;;3.03;0.73;;;7.50;97.20;;;;;;5096940;28;20031;-78
2022/01/31 13:10:52;;;;;;;3.13;0.70;;;7.50;96.30;;;;;;5092657;28;20024;-77
2022/01/31 13:13:37;;;;;;;3.40;0.77;;;7.50;96.10;;;;;;5091175;28;20020;-77
2022/01/31 13:16:07;;;;;;;4.37;0.70;;;7.50;95.90;;;;;;5112549;28;20074;-77
2022/01/31 13:18:33;;;;;;;2.67;0.50;;;7.60;96.20;;;;;;5095346;28;20039;-77
2022/01/31 13:21:03;;;;;;;3.53;0.67;;;7.60;96.20;;;;;;5114150;28;20028;-76